Berryville, Texas
Current Conditions -  °F | °C
As of 9:35 PM on Saturday 22 Nov 2014 (Local Time) from KPSN Reporting Station
Heavy Rain Heavy Rain  
Wind Chill: 60°   Ceiling: 2500
Heat Index: 60°   Visibility: 5mi
Dew Point: 59°   Wind: 6mph
Humidity: 98%   Direction: 10°N
Pressure: 29.81"   Gusts: NA
Location:  32.0056°N, 95.5543°W
Report Text: KPSN 230335Z AUTO 01005KT 5SM +RA SCT014 SCT020 BKN025 15/15 A2981 RMK AO2 P0013 T01550152
Loading
Personal Weather Stations






























Interactive Weather Map New forecast layout! Learn more

10-Day Weather Forecast

Advertisements
Track Severe Weather on mobile